sensor_id;sensor_type;location;lat;lon;timestamp;P1;durP1;ratioP1;P2;durP2;ratioP2
15246;SDS011;7726;48.820;9.248;2023-12-04T00:00:22;15.00;;;10.60;;
15246;SDS011;7726;48.820;9.248;2023-12-04T00:02:49;18.37;;;11.97;;
15246;SDS011;7726;48.820;9.248;2023-12-04T00:05:15;16.77;;;11.47;;
15246;SDS011;7726;48.820;9.248;2023-12-04T00:07:42;17.93;;;11.57;;
15246;SDS011;7726;48.820;9.248;2023-12-04T00:10:11;15.23;;;11.07;;
15246;SDS011;7726;48.820;9.248;2023-12-04T00:12:38;18.23;;;12.33;;
15246;SDS011;7726;48.820;9.248;2023-12-04T00:15:05;17.27;;;11.50;;
15246;SDS011;7726;48.820;9.248;2023-12-04T00:17:33;16.83;;;11.67;;
15246;SDS011;7726;48.820;9.248;2023-12-04T00:20:04;17.23;;;11.63;;
15246;SDS011;7726;48.820;9.248;2023-12-04T00:22:32;17.07;;;11.50;;
15246;SDS011;7726;48.820;9.248;2023-12-04T00:24:59;20.13;;;11.93;;
15246;SDS011;7726;48.820;9.248;2023-12-04T00:27:27;19.23;;;12.07;;
15246;SDS011;7726;48.820;9.248;2023-12-04T00:29:54;18.77;;;11.13;;
15246;SDS011;7726;48.820;9.248;2023-12-04T00:32:22;17.07;;;10.93;;
15246;SDS011;7726;48.820;9.248;2023-12-04T00:34:49;18.03;;;11.47;;
15246;SDS011;7726;48.820;9.248;2023-12-04T00:37:16;18.17;;;11.03;;
15246;SDS011;7726;48.820;9.248;2023-12-04T00:39:43;14.60;;;10.37;;
15246;SDS011;7726;48.820;9.248;2023-12-04T00:42:11;16.57;;;11.53;;
15246;SDS011;7726;48.820;9.248;2023-12-04T00:44:39;17.67;;;11.40;;
15246;SDS011;7726;48.820;9.248;2023-12-04T00:47:06;16.60;;;10.73;;
15246;SDS011;7726;48.820;9.248;2023-12-04T00:49:33;17.87;;;11.00;;
15246;SDS011;7726;48.820;9.248;2023-12-04T00:52:04;18.73;;;10.63;;
15246;SDS011;7726;48.820;9.248;2023-12-04T00:54:31;17.80;;;11.37;;
15246;SDS011;7726;48.820;9.248;2023-12-04T00:56:58;17.83;;;11.63;;
15246;SDS011;7726;48.820;9.248;2023-12-04T00:59:25;17.03;;;10.80;;
15246;SDS011;7726;48.820;9.248;2023-12-04T01:01:54;19.03;;;12.23;;
15246;SDS011;7726;48.820;9.248;2023-12-04T01:04:21;14.70;;;10.37;;
15246;SDS011;7726;48.820;9.248;2023-12-04T01:06:48;16.37;;;10.73;;
15246;SDS011;7726;48.820;9.248;2023-12-04T01:09:15;17.17;;;10.60;;
15246;SDS011;7726;48.820;9.248;2023-12-04T01:11:42;17.40;;;11.17;;
15246;SDS011;7726;48.820;9.248;2023-12-04T01:14:09;15.73;;;10.63;;
15246;SDS011;7726;48.820;9.248;2023-12-04T01:16:37;15.80;;;10.93;;
15246;SDS011;7726;48.820;9.248;2023-12-04T01:19:05;18.57;;;10.63;;
15246;SDS011;7726;48.820;9.248;2023-12-04T01:21:32;15.37;;;9.87;;
15246;SDS011;7726;48.820;9.248;2023-12-04T01:23:59;13.93;;;9.47;;
15246;SDS011;7726;48.820;9.248;2023-12-04T01:26:26;17.43;;;11.17;;
15246;SDS011;7726;48.820;9.248;2023-12-04T01:28:54;16.03;;;10.80;;
15246;SDS011;7726;48.820;9.248;2023-12-04T01:31:21;15.13;;;10.20;;
15246;SDS011;7726;48.820;9.248;2023-12-04T01:33:48;15.67;;;10.40;;
15246;SDS011;7726;48.820;9.248;2023-12-04T01:36:17;16.00;;;10.77;;
15246;SDS011;7726;48.820;9.248;2023-12-04T01:38:44;16.60;;;10.97;;
15246;SDS011;7726;48.820;9.248;2023-12-04T01:41:11;16.30;;;11.13;;
15246;SDS011;7726;48.820;9.248;2023-12-04T01:43:38;18.73;;;11.90;;
15246;SDS011;7726;48.820;9.248;2023-12-04T01:46:05;17.67;;;11.13;;
15246;SDS011;7726;48.820;9.248;2023-12-04T01:48:33;16.30;;;11.20;;
15246;SDS011;7726;48.820;9.248;2023-12-04T01:51:01;19.53;;;11.37;;
15246;SDS011;7726;48.820;9.248;2023-12-04T01:53:31;17.87;;;11.40;;
15246;SDS011;7726;48.820;9.248;2023-12-04T01:55:59;17.97;;;11.03;;
15246;SDS011;7726;48.820;9.248;2023-12-04T01:58:26;18.07;;;12.20;;
15246;SDS011;7726;48.820;9.248;2023-12-04T02:00:53;21.77;;;11.53;;
15246;SDS011;7726;48.820;9.248;2023-12-04T02:03:20;19.10;;;11.37;;
15246;SDS011;7726;48.820;9.248;2023-12-04T02:05:47;19.17;;;11.60;;
15246;SDS011;7726;48.820;9.248;2023-12-04T02:08:15;16.73;;;10.83;;
15246;SDS011;7726;48.820;9.248;2023-12-04T02:10:44;19.33;;;11.37;;
15246;SDS011;7726;48.820;9.248;2023-12-04T02:13:11;17.00;;;11.10;;
15246;SDS011;7726;48.820;9.248;2023-12-04T02:15:38;17.97;;;11.50;;
15246;SDS011;7726;48.820;9.248;2023-12-04T02:18:05;17.60;;;11.03;;
15246;SDS011;7726;48.820;9.248;2023-12-04T02:20:33;16.13;;;11.00;;
15246;SDS011;7726;48.820;9.248;2023-12-04T02:23:00;17.83;;;10.97;;
15246;SDS011;7726;48.820;9.248;2023-12-04T02:25:29;17.67;;;10.50;;
15246;SDS011;7726;48.820;9.248;2023-12-04T02:27:57;16.53;;;10.10;;
15246;SDS011;7726;48.820;9.248;2023-12-04T02:30:26;14.47;;;10.20;;
15246;SDS011;7726;48.820;9.248;2023-12-04T02:32:56;16.73;;;11.00;;
15246;SDS011;7726;48.820;9.248;2023-12-04T02:35:24;14.13;;;9.87;;
15246;SDS011;7726;48.820;9.248;2023-12-04T02:37:53;16.20;;;10.27;;
15246;SDS011;7726;48.820;9.248;2023-12-04T02:40:20;15.87;;;10.03;;
15246;SDS011;7726;48.820;9.248;2023-12-04T02:42:48;16.43;;;10.17;;
15246;SDS011;7726;48.820;9.248;2023-12-04T02:45:15;17.00;;;10.50;;
15246;SDS011;7726;48.820;9.248;2023-12-04T02:47:43;16.23;;;9.93;;
15246;SDS011;7726;48.820;9.248;2023-12-04T02:50:10;17.47;;;10.40;;
15246;SDS011;7726;48.820;9.248;2023-12-04T02:52:37;14.40;;;9.27;;
15246;SDS011;7726;48.820;9.248;2023-12-04T02:55:04;18.67;;;10.50;;
15246;SDS011;7726;48.820;9.248;2023-12-04T02:57:32;15.10;;;10.30;;
15246;SDS011;7726;48.820;9.248;2023-12-04T03:00:00;16.67;;;10.47;;
15246;SDS011;7726;48.820;9.248;2023-12-04T03:02:28;15.20;;;10.30;;
15246;SDS011;7726;48.820;9.248;2023-12-04T03:04:56;15.33;;;10.17;;
15246;SDS011;7726;48.820;9.248;2023-12-04T03:07:23;15.80;;;10.50;;
15246;SDS011;7726;48.820;9.248;2023-12-04T03:09:51;17.57;;;10.83;;
15246;SDS011;7726;48.820;9.248;2023-12-04T03:12:18;16.93;;;10.23;;
15246;SDS011;7726;48.820;9.248;2023-12-04T03:14:45;18.07;;;10.77;;
15246;SDS011;7726;48.820;9.248;2023-12-04T03:17:14;17.00;;;10.93;;
15246;SDS011;7726;48.820;9.248;2023-12-04T03:19:41;15.30;;;10.67;;
15246;SDS011;7726;48.820;9.248;2023-12-04T03:22:08;18.67;;;11.20;;
15246;SDS011;7726;48.820;9.248;2023-12-04T03:24:35;15.20;;;9.50;;
15246;SDS011;7726;48.820;9.248;2023-12-04T03:27:03;16.83;;;10.13;;
15246;SDS011;7726;48.820;9.248;2023-12-04T03:29:30;16.93;;;10.83;;
15246;SDS011;7726;48.820;9.248;2023-12-04T03:31:57;17.73;;;10.57;;
15246;SDS011;7726;48.820;9.248;2023-12-04T03:34:25;17.20;;;10.70;;
15246;SDS011;7726;48.820;9.248;2023-12-04T03:36:53;14.17;;;9.63;;
15246;SDS011;7726;48.820;9.248;2023-12-04T03:39:20;13.87;;;8.70;;
15246;SDS011;7726;48.820;9.248;2023-12-04T03:41:47;16.20;;;10.53;;
15246;SDS011;7726;48.820;9.248;2023-12-04T03:44:14;16.53;;;10.07;;
15246;SDS011;7726;48.820;9.248;2023-12-04T03:46:41;14.87;;;9.63;;
15246;SDS011;7726;48.820;9.248;2023-12-04T03:49:09;15.43;;;9.60;;
15246;SDS011;7726;48.820;9.248;2023-12-04T03:51:37;14.70;;;9.90;;
15246;SDS011;7726;48.820;9.248;2023-12-04T03:54:04;13.43;;;9.17;;
15246;SDS011;7726;48.820;9.248;2023-12-04T03:56:31;14.87;;;9.67;;
15246;SDS011;7726;48.820;9.248;2023-12-04T03:58:59;15.17;;;9.47;;
15246;SDS011;7726;48.820;9.248;2023-12-04T04:01:26;14.93;;;9.30;;
15246;SDS011;7726;48.820;9.248;2023-12-04T04:03:53;15.17;;;9.80;;
15246;SDS011;7726;48.820;9.248;2023-12-04T04:06:20;14.23;;;9.30;;
15246;SDS011;7726;48.820;9.248;2023-12-04T04:08:48;16.50;;;9.83;;
15246;SDS011;7726;48.820;9.248;2023-12-04T04:11:17;15.73;;;9.47;;
15246;SDS011;7726;48.820;9.248;2023-12-04T04:13:44;16.90;;;10.53;;
15246;SDS011;7726;48.820;9.248;2023-12-04T04:16:13;14.93;;;9.27;;
15246;SDS011;7726;48.820;9.248;2023-12-04T04:18:41;16.33;;;9.83;;
15246;SDS011;7726;48.820;9.248;2023-12-04T04:21:08;13.47;;;9.33;;
15246;SDS011;7726;48.820;9.248;2023-12-04T04:23:35;15.77;;;10.27;;
15246;SDS011;7726;48.820;9.248;2023-12-04T04:26:04;17.00;;;9.97;;
15246;SDS011;7726;48.820;9.248;2023-12-04T04:28:31;17.27;;;10.70;;
15246;SDS011;7726;48.820;9.248;2023-12-04T04:30:59;13.47;;;8.77;;
15246;SDS011;7726;48.820;9.248;2023-12-04T04:33:26;15.27;;;9.90;;
15246;SDS011;7726;48.820;9.248;2023-12-04T04:35:53;14.33;;;9.73;;
15246;SDS011;7726;48.820;9.248;2023-12-04T04:38:20;13.73;;;9.37;;
15246;SDS011;7726;48.820;9.248;2023-12-04T04:40:47;13.83;;;9.40;;
15246;SDS011;7726;48.820;9.248;2023-12-04T04:43:16;14.17;;;9.50;;
15246;SDS011;7726;48.820;9.248;2023-12-04T04:45:43;12.70;;;9.13;;
15246;SDS011;7726;48.820;9.248;2023-12-04T04:48:10;14.63;;;9.60;;
15246;SDS011;7726;48.820;9.248;2023-12-04T04:50:37;14.43;;;9.83;;
15246;SDS011;7726;48.820;9.248;2023-12-04T04:53:04;12.50;;;8.80;;
15246;SDS011;7726;48.820;9.248;2023-12-04T04:55:31;14.20;;;9.57;;
15246;SDS011;7726;48.820;9.248;2023-12-04T04:57:59;14.00;;;9.70;;
15246;SDS011;7726;48.820;9.248;2023-12-04T05:00:27;12.60;;;9.33;;
15246;SDS011;7726;48.820;9.248;2023-12-04T05:02:54;13.27;;;8.53;;
15246;SDS011;7726;48.820;9.248;2023-12-04T05:05:21;10.97;;;7.47;;
15246;SDS011;7726;48.820;9.248;2023-12-04T05:07:48;11.77;;;8.17;;
15246;SDS011;7726;48.820;9.248;2023-12-04T05:10:16;11.00;;;7.90;;
15246;SDS011;7726;48.820;9.248;2023-12-04T05:12:43;12.20;;;8.43;;
15246;SDS011;7726;48.820;9.248;2023-12-04T05:15:10;11.13;;;8.47;;
15246;SDS011;7726;48.820;9.248;2023-12-04T05:17:39;12.33;;;8.13;;
15246;SDS011;7726;48.820;9.248;2023-12-04T05:20:07;13.43;;;8.27;;
15246;SDS011;7726;48.820;9.248;2023-12-04T05:22:35;11.00;;;8.07;;
15246;SDS011;7726;48.820;9.248;2023-12-04T05:25:02;10.77;;;7.60;;
15246;SDS011;7726;48.820;9.248;2023-12-04T05:27:29;11.17;;;8.77;;
15246;SDS011;7726;48.820;9.248;2023-12-04T05:29:56;10.77;;;7.77;;
15246;SDS011;7726;48.820;9.248;2023-12-04T05:32:23;10.07;;;7.43;;
15246;SDS011;7726;48.820;9.248;2023-12-04T05:34:52;9.57;;;7.00;;
15246;SDS011;7726;48.820;9.248;2023-12-04T05:37:19;13.47;;;7.60;;
15246;SDS011;7726;48.820;9.248;2023-12-04T05:39:46;9.47;;;6.40;;
15246;SDS011;7726;48.820;9.248;2023-12-04T05:42:14;12.03;;;7.73;;
15246;SDS011;7726;48.820;9.248;2023-12-04T05:44:41;10.17;;;7.50;;
15246;SDS011;7726;48.820;9.248;2023-12-04T05:47:08;10.33;;;5.80;;
15246;SDS011;7726;48.820;9.248;2023-12-04T05:49:35;9.50;;;6.83;;
15246;SDS011;7726;48.820;9.248;2023-12-04T05:52:04;7.73;;;5.50;;
15246;SDS011;7726;48.820;9.248;2023-12-04T05:54:31;11.97;;;6.93;;
15246;SDS011;7726;48.820;9.248;2023-12-04T05:56:58;8.17;;;6.10;;
15246;SDS011;7726;48.820;9.248;2023-12-04T05:59:26;7.33;;;5.63;;
15246;SDS011;7726;48.820;9.248;2023-12-04T06:01:53;11.37;;;7.03;;
15246;SDS011;7726;48.820;9.248;2023-12-04T06:04:20;11.97;;;8.33;;
15246;SDS011;7726;48.820;9.248;2023-12-04T06:06:47;11.93;;;8.93;;
15246;SDS011;7726;48.820;9.248;2023-12-04T06:09:16;10.73;;;7.10;;
15246;SDS011;7726;48.820;9.248;2023-12-04T06:11:43;11.67;;;7.13;;
15246;SDS011;7726;48.820;9.248;2023-12-04T06:14:11;10.23;;;7.77;;
15246;SDS011;7726;48.820;9.248;2023-12-04T06:16:38;8.87;;;6.73;;
15246;SDS011;7726;48.820;9.248;2023-12-04T06:19:05;10.03;;;7.07;;
15246;SDS011;7726;48.820;9.248;2023-12-04T06:21:32;9.27;;;6.63;;
15246;SDS011;7726;48.820;9.248;2023-12-04T06:24:00;10.07;;;7.20;;
15246;SDS011;7726;48.820;9.248;2023-12-04T06:26:29;10.10;;;7.47;;
15246;SDS011;7726;48.820;9.248;2023-12-04T06:28:56;11.67;;;7.87;;
15246;SDS011;7726;48.820;9.248;2023-12-04T06:31:24;10.50;;;7.30;;
15246;SDS011;7726;48.820;9.248;2023-12-04T06:33:51;9.63;;;7.57;;
15246;SDS011;7726;48.820;9.248;2023-12-04T06:36:18;10.80;;;7.50;;
15246;SDS011;7726;48.820;9.248;2023-12-04T06:38:46;12.27;;;7.87;;
15246;SDS011;7726;48.820;9.248;2023-12-04T06:41:14;10.77;;;7.87;;
15246;SDS011;7726;48.820;9.248;2023-12-04T06:43:44;13.07;;;8.73;;
15246;SDS011;7726;48.820;9.248;2023-12-04T06:46:11;10.83;;;7.90;;
15246;SDS011;7726;48.820;9.248;2023-12-04T06:48:40;13.53;;;8.97;;
15246;SDS011;7726;48.820;9.248;2023-12-04T06:51:08;12.50;;;8.47;;
15246;SDS011;7726;48.820;9.248;2023-12-04T06:53:35;12.40;;;8.90;;
15246;SDS011;7726;48.820;9.248;2023-12-04T06:56:03;12.10;;;8.10;;
15246;SDS011;7726;48.820;9.248;2023-12-04T06:58:30;12.63;;;8.27;;
15246;SDS011;7726;48.820;9.248;2023-12-04T07:00:59;10.67;;;7.87;;
15246;SDS011;7726;48.820;9.248;2023-12-04T07:03:27;12.73;;;8.23;;
15246;SDS011;7726;48.820;9.248;2023-12-04T07:05:54;12.97;;;8.47;;
15246;SDS011;7726;48.820;9.248;2023-12-04T07:08:21;12.77;;;8.13;;
15246;SDS011;7726;48.820;9.248;2023-12-04T07:10:48;10.70;;;8.00;;
15246;SDS011;7726;48.820;9.248;2023-12-04T07:13:15;14.93;;;9.17;;
15246;SDS011;7726;48.820;9.248;2023-12-04T07:15:43;14.20;;;9.33;;
15246;SDS011;7726;48.820;9.248;2023-12-04T07:18:11;14.83;;;8.60;;
15246;SDS011;7726;48.820;9.248;2023-12-04T07:20:38;10.27;;;7.20;;
15246;SDS011;7726;48.820;9.248;2023-12-04T07:23:06;13.87;;;8.50;;
15246;SDS011;7726;48.820;9.248;2023-12-04T07:25:33;13.60;;;8.83;;
15246;SDS011;7726;48.820;9.248;2023-12-04T07:28:00;11.77;;;9.40;;
15246;SDS011;7726;48.820;9.248;2023-12-04T07:30:27;14.30;;;9.97;;
15246;SDS011;7726;48.820;9.248;2023-12-04T07:32:55;13.87;;;9.53;;
15246;SDS011;7726;48.820;9.248;2023-12-04T07:35:24;17.20;;;9.83;;
15246;SDS011;7726;48.820;9.248;2023-12-04T07:37:51;15.10;;;9.17;;
15246;SDS011;7726;48.820;9.248;2023-12-04T07:40:18;11.83;;;8.80;;
15246;SDS011;7726;48.820;9.248;2023-12-04T07:42:47;16.07;;;10.27;;
15246;SDS011;7726;48.820;9.248;2023-12-04T07:45:15;13.87;;;9.37;;
15246;SDS011;7726;48.820;9.248;2023-12-04T07:47:42;11.43;;;8.60;;
15246;SDS011;7726;48.820;9.248;2023-12-04T07:50:10;12.33;;;8.83;;
15246;SDS011;7726;48.820;9.248;2023-12-04T07:52:39;11.63;;;8.37;;
15246;SDS011;7726;48.820;9.248;2023-12-04T07:55:06;11.87;;;8.37;;
15246;SDS011;7726;48.820;9.248;2023-12-04T07:57:33;13.80;;;9.30;;
15246;SDS011;7726;48.820;9.248;2023-12-04T08:00:01;12.13;;;7.77;;
15246;SDS011;7726;48.820;9.248;2023-12-04T08:02:28;11.03;;;8.47;;
15246;SDS011;7726;48.820;9.248;2023-12-04T08:04:56;12.40;;;8.27;;
15246;SDS011;7726;48.820;9.248;2023-12-04T08:07:23;13.77;;;9.20;;
15246;SDS011;7726;48.820;9.248;2023-12-04T08:09:52;12.67;;;9.10;;
15246;SDS011;7726;48.820;9.248;2023-12-04T08:12:19;13.30;;;9.70;;
15246;SDS011;7726;48.820;9.248;2023-12-04T08:14:46;12.23;;;8.90;;
15246;SDS011;7726;48.820;9.248;2023-12-04T08:17:13;14.00;;;9.50;;
15246;SDS011;7726;48.820;9.248;2023-12-04T08:19:41;14.27;;;9.20;;
15246;SDS011;7726;48.820;9.248;2023-12-04T08:22:08;15.30;;;9.03;;
15246;SDS011;7726;48.820;9.248;2023-12-04T08:24:35;17.70;;;10.77;;
15246;SDS011;7726;48.820;9.248;2023-12-04T08:27:04;17.07;;;9.67;;
15246;SDS011;7726;48.820;9.248;2023-12-04T08:29:33;13.43;;;9.07;;
15246;SDS011;7726;48.820;9.248;2023-12-04T08:32:00;13.17;;;9.27;;
15246;SDS011;7726;48.820;9.248;2023-12-04T08:34:27;15.07;;;8.77;;
15246;SDS011;7726;48.820;9.248;2023-12-04T08:36:54;12.23;;;8.30;;
15246;SDS011;7726;48.820;9.248;2023-12-04T08:39:22;11.87;;;8.20;;
15246;SDS011;7726;48.820;9.248;2023-12-04T08:41:49;16.40;;;8.57;;
15246;SDS011;7726;48.820;9.248;2023-12-04T08:44:17;11.70;;;7.93;;
15246;SDS011;7726;48.820;9.248;2023-12-04T08:46:45;9.63;;;7.30;;
15246;SDS011;7726;48.820;9.248;2023-12-04T08:49:12;11.90;;;7.80;;
15246;SDS011;7726;48.820;9.248;2023-12-04T08:51:39;10.80;;;7.50;;
15246;SDS011;7726;48.820;9.248;2023-12-04T08:54:06;10.60;;;7.63;;
15246;SDS011;7726;48.820;9.248;2023-12-04T08:56:33;10.83;;;8.07;;
15246;SDS011;7726;48.820;9.248;2023-12-04T08:59:01;10.90;;;7.83;;
15246;SDS011;7726;48.820;9.248;2023-12-04T09:01:29;13.23;;;9.30;;
15246;SDS011;7726;48.820;9.248;2023-12-04T09:03:57;11.60;;;9.03;;
15246;SDS011;7726;48.820;9.248;2023-12-04T09:06:24;12.67;;;8.67;;
15246;SDS011;7726;48.820;9.248;2023-12-04T09:08:51;11.97;;;8.30;;
15246;SDS011;7726;48.820;9.248;2023-12-04T09:11:19;14.40;;;8.80;;
15246;SDS011;7726;48.820;9.248;2023-12-04T09:13:46;13.67;;;8.60;;
15246;SDS011;7726;48.820;9.248;2023-12-04T09:16:13;12.90;;;8.87;;
15246;SDS011;7726;48.820;9.248;2023-12-04T09:18:42;12.83;;;8.77;;
15246;SDS011;7726;48.820;9.248;2023-12-04T09:21:09;14.93;;;8.57;;
15246;SDS011;7726;48.820;9.248;2023-12-04T09:23:36;11.13;;;8.10;;
15246;SDS011;7726;48.820;9.248;2023-12-04T09:26:03;14.47;;;9.57;;
15246;SDS011;7726;48.820;9.248;2023-12-04T09:28:31;14.30;;;9.10;;
15246;SDS011;7726;48.820;9.248;2023-12-04T09:30:58;16.53;;;9.33;;
15246;SDS011;7726;48.820;9.248;2023-12-04T09:33:25;12.23;;;8.40;;
15246;SDS011;7726;48.820;9.248;2023-12-04T09:35:54;11.63;;;7.77;;
15246;SDS011;7726;48.820;9.248;2023-12-04T09:38:21;11.23;;;7.90;;
15246;SDS011;7726;48.820;9.248;2023-12-04T09:40:49;11.70;;;8.23;;
15246;SDS011;7726;48.820;9.248;2023-12-04T09:43:17;12.90;;;8.57;;
15246;SDS011;7726;48.820;9.248;2023-12-04T09:45:44;16.60;;;12.03;;
15246;SDS011;7726;48.820;9.248;2023-12-04T09:48:12;16.13;;;10.20;;
15246;SDS011;7726;48.820;9.248;2023-12-04T09:50:39;9.77;;;7.40;;
15246;SDS011;7726;48.820;9.248;2023-12-04T09:53:08;11.13;;;7.83;;
15246;SDS011;7726;48.820;9.248;2023-12-04T09:55:38;11.67;;;8.20;;
15246;SDS011;7726;48.820;9.248;2023-12-04T09:58:06;12.70;;;8.57;;
15246;SDS011;7726;48.820;9.248;2023-12-04T10:00:33;12.47;;;7.97;;
15246;SDS011;7726;48.820;9.248;2023-12-04T10:03:01;12.27;;;8.57;;
15246;SDS011;7726;48.820;9.248;2023-12-04T10:05:29;12.17;;;8.03;;
15246;SDS011;7726;48.820;9.248;2023-12-04T10:07:56;11.60;;;8.37;;
15246;SDS011;7726;48.820;9.248;2023-12-04T10:10:25;12.83;;;8.37;;
15246;SDS011;7726;48.820;9.248;2023-12-04T10:12:52;10.73;;;8.30;;
15246;SDS011;7726;48.820;9.248;2023-12-04T10:15:19;13.13;;;8.93;;
15246;SDS011;7726;48.820;9.248;2023-12-04T10:17:46;11.63;;;8.23;;
15246;SDS011;7726;48.820;9.248;2023-12-04T10:20:14;11.87;;;8.90;;
15246;SDS011;7726;48.820;9.248;2023-12-04T10:22:52;10.87;;;8.13;;
15246;SDS011;7726;48.820;9.248;2023-12-04T10:25:20;13.77;;;8.43;;
15246;SDS011;7726;48.820;9.248;2023-12-04T10:27:50;10.23;;;8.00;;
15246;SDS011;7726;48.820;9.248;2023-12-04T10:30:27;11.23;;;8.27;;
15246;SDS011;7726;48.820;9.248;2023-12-04T10:32:56;12.83;;;9.07;;
15246;SDS011;7726;48.820;9.248;2023-12-04T10:35:25;10.87;;;7.50;;
15246;SDS011;7726;48.820;9.248;2023-12-04T10:37:53;12.17;;;8.60;;
15246;SDS011;7726;48.820;9.248;2023-12-04T10:40:24;11.73;;;7.60;;
15246;SDS011;7726;48.820;9.248;2023-12-04T10:42:57;11.50;;;7.97;;
15246;SDS011;7726;48.820;9.248;2023-12-04T10:45:36;10.00;;;7.80;;
15246;SDS011;7726;48.820;9.248;2023-12-04T10:48:04;10.60;;;7.13;;
15246;SDS011;7726;48.820;9.248;2023-12-04T10:50:31;9.47;;;7.40;;
15246;SDS011;7726;48.820;9.248;2023-12-04T10:53:00;17.87;;;12.00;;
15246;SDS011;7726;48.820;9.248;2023-12-04T10:55:29;10.77;;;7.33;;
15246;SDS011;7726;48.820;9.248;2023-12-04T10:57:57;12.13;;;7.47;;
15246;SDS011;7726;48.820;9.248;2023-12-04T11:00:26;9.13;;;6.97;;
15246;SDS011;7726;48.820;9.248;2023-12-04T11:02:55;9.50;;;7.10;;
15246;SDS011;7726;48.820;9.248;2023-12-04T11:05:24;11.83;;;6.87;;
15246;SDS011;7726;48.820;9.248;2023-12-04T11:07:56;11.17;;;7.17;;
15246;SDS011;7726;48.820;9.248;2023-12-04T11:10:24;7.73;;;6.53;;
15246;SDS011;7726;48.820;9.248;2023-12-04T11:12:55;9.13;;;6.80;;
15246;SDS011;7726;48.820;9.248;2023-12-04T11:15:26;8.77;;;6.40;;
15246;SDS011;7726;48.820;9.248;2023-12-04T11:17:58;9.43;;;6.50;;
15246;SDS011;7726;48.820;9.248;2023-12-04T11:20:27;8.50;;;6.70;;
15246;SDS011;7726;48.820;9.248;2023-12-04T11:22:55;9.90;;;7.07;;
15246;SDS011;7726;48.820;9.248;2023-12-04T11:25:24;8.30;;;6.70;;
15246;SDS011;7726;48.820;9.248;2023-12-04T11:27:52;11.00;;;7.07;;
15246;SDS011;7726;48.820;9.248;2023-12-04T11:30:19;11.73;;;6.60;;
15246;SDS011;7726;48.820;9.248;2023-12-04T11:32:49;8.17;;;6.60;;
15246;SDS011;7726;48.820;9.248;2023-12-04T11:35:17;8.87;;;6.83;;
15246;SDS011;7726;48.820;9.248;2023-12-04T11:37:46;8.17;;;6.67;;
15246;SDS011;7726;48.820;9.248;2023-12-04T11:40:14;9.63;;;7.23;;
15246;SDS011;7726;48.820;9.248;2023-12-04T11:42:42;9.30;;;7.03;;
15246;SDS011;7726;48.820;9.248;2023-12-04T11:45:09;8.53;;;6.93;;
15246;SDS011;7726;48.820;9.248;2023-12-04T11:47:50;11.10;;;7.73;;
15246;SDS011;7726;48.820;9.248;2023-12-04T11:50:18;10.90;;;7.37;;
15246;SDS011;7726;48.820;9.248;2023-12-04T11:52:46;10.67;;;7.73;;
15246;SDS011;7726;48.820;9.248;2023-12-04T11:55:15;11.93;;;7.50;;
15246;SDS011;7726;48.820;9.248;2023-12-04T11:57:42;9.90;;;7.00;;
15246;SDS011;7726;48.820;9.248;2023-12-04T12:00:12;12.53;;;7.63;;
15246;SDS011;7726;48.820;9.248;2023-12-04T12:02:46;10.70;;;6.93;;
15246;SDS011;7726;48.820;9.248;2023-12-04T12:05:15;13.40;;;7.27;;
15246;SDS011;7726;48.820;9.248;2023-12-04T12:07:43;9.83;;;7.33;;
15246;SDS011;7726;48.820;9.248;2023-12-04T12:10:10;10.80;;;7.27;;
15246;SDS011;7726;48.820;9.248;2023-12-04T12:12:38;13.50;;;7.43;;
15246;SDS011;7726;48.820;9.248;2023-12-04T12:15:08;10.50;;;6.97;;
15246;SDS011;7726;48.820;9.248;2023-12-04T12:17:35;10.17;;;7.83;;
15246;SDS011;7726;48.820;9.248;2023-12-04T12:20:02;10.87;;;7.13;;
15246;SDS011;7726;48.820;9.248;2023-12-04T12:22:33;9.93;;;7.00;;
15246;SDS011;7726;48.820;9.248;2023-12-04T12:25:00;9.67;;;6.97;;
15246;SDS011;7726;48.820;9.248;2023-12-04T12:27:29;9.83;;;7.67;;
15246;SDS011;7726;48.820;9.248;2023-12-04T12:29:57;8.90;;;6.90;;
15246;SDS011;7726;48.820;9.248;2023-12-04T12:32:24;10.13;;;7.63;;
15246;SDS011;7726;48.820;9.248;2023-12-04T12:34:52;10.03;;;7.23;;
15246;SDS011;7726;48.820;9.248;2023-12-04T12:37:20;10.03;;;7.77;;
15246;SDS011;7726;48.820;9.248;2023-12-04T12:39:49;11.30;;;7.30;;
15246;SDS011;7726;48.820;9.248;2023-12-04T12:42:20;10.97;;;7.80;;
15246;SDS011;7726;48.820;9.248;2023-12-04T12:44:48;12.47;;;8.57;;
15246;SDS011;7726;48.820;9.248;2023-12-04T12:47:15;10.77;;;8.03;;
15246;SDS011;7726;48.820;9.248;2023-12-04T12:49:43;10.07;;;7.73;;
15246;SDS011;7726;48.820;9.248;2023-12-04T12:52:10;12.03;;;8.37;;
15246;SDS011;7726;48.820;9.248;2023-12-04T12:54:38;10.93;;;8.40;;
15246;SDS011;7726;48.820;9.248;2023-12-04T12:57:07;12.53;;;8.77;;
15246;SDS011;7726;48.820;9.248;2023-12-04T12:59:34;11.40;;;8.77;;
15246;SDS011;7726;48.820;9.248;2023-12-04T13:02:01;12.23;;;9.27;;
15246;SDS011;7726;48.820;9.248;2023-12-04T13:04:34;10.63;;;8.73;;
15246;SDS011;7726;48.820;9.248;2023-12-04T13:07:01;11.63;;;9.37;;
15246;SDS011;7726;48.820;9.248;2023-12-04T13:09:30;11.10;;;8.67;;
15246;SDS011;7726;48.820;9.248;2023-12-04T13:11:58;14.43;;;9.43;;
15246;SDS011;7726;48.820;9.248;2023-12-04T13:14:27;13.83;;;9.50;;
15246;SDS011;7726;48.820;9.248;2023-12-04T13:16:54;13.50;;;9.40;;
15246;SDS011;7726;48.820;9.248;2023-12-04T13:19:22;13.90;;;9.90;;
15246;SDS011;7726;48.820;9.248;2023-12-04T13:21:49;15.20;;;9.53;;
15246;SDS011;7726;48.820;9.248;2023-12-04T13:24:16;14.30;;;10.53;;
15246;SDS011;7726;48.820;9.248;2023-12-04T13:26:43;13.77;;;10.30;;
15246;SDS011;7726;48.820;9.248;2023-12-04T13:29:10;16.23;;;10.67;;
15246;SDS011;7726;48.820;9.248;2023-12-04T13:31:42;14.03;;;10.60;;
15246;SDS011;7726;48.820;9.248;2023-12-04T13:34:11;13.20;;;10.47;;
15246;SDS011;7726;48.820;9.248;2023-12-04T13:36:38;16.70;;;11.73;;
15246;SDS011;7726;48.820;9.248;2023-12-04T13:39:06;15.40;;;11.07;;
15246;SDS011;7726;48.820;9.248;2023-12-04T13:41:41;14.80;;;11.13;;
15246;SDS011;7726;48.820;9.248;2023-12-04T13:44:26;15.77;;;11.30;;
15246;SDS011;7726;48.820;9.248;2023-12-04T13:46:56;13.60;;;10.37;;
15246;SDS011;7726;48.820;9.248;2023-12-04T13:49:23;17.20;;;11.37;;
15246;SDS011;7726;48.820;9.248;2023-12-04T13:51:50;14.87;;;11.97;;
15246;SDS011;7726;48.820;9.248;2023-12-04T13:54:18;13.67;;;10.93;;
15246;SDS011;7726;48.820;9.248;2023-12-04T13:56:46;14.07;;;11.23;;
15246;SDS011;7726;48.820;9.248;2023-12-04T13:59:19;16.80;;;11.10;;
15246;SDS011;7726;48.820;9.248;2023-12-04T14:01:47;16.53;;;11.47;;
15246;SDS011;7726;48.820;9.248;2023-12-04T14:04:16;15.27;;;10.73;;
15246;SDS011;7726;48.820;9.248;2023-12-04T14:06:43;19.70;;;11.77;;
15246;SDS011;7726;48.820;9.248;2023-12-04T14:09:11;18.63;;;11.77;;
15246;SDS011;7726;48.820;9.248;2023-12-04T14:11:41;16.93;;;11.90;;
15246;SDS011;7726;48.820;9.248;2023-12-04T14:14:09;17.10;;;11.50;;
15246;SDS011;7726;48.820;9.248;2023-12-04T14:16:37;18.53;;;11.53;;
15246;SDS011;7726;48.820;9.248;2023-12-04T14:19:05;16.43;;;12.13;;
15246;SDS011;7726;48.820;9.248;2023-12-04T14:21:34;18.73;;;11.97;;
15246;SDS011;7726;48.820;9.248;2023-12-04T14:24:01;17.87;;;13.27;;
15246;SDS011;7726;48.820;9.248;2023-12-04T14:26:29;18.13;;;11.87;;
15246;SDS011;7726;48.820;9.248;2023-12-04T14:28:56;20.23;;;13.13;;
15246;SDS011;7726;48.820;9.248;2023-12-04T14:31:26;20.67;;;12.67;;
15246;SDS011;7726;48.820;9.248;2023-12-04T14:33:53;18.57;;;12.83;;
15246;SDS011;7726;48.820;9.248;2023-12-04T14:36:20;19.33;;;12.87;;
15246;SDS011;7726;48.820;9.248;2023-12-04T14:38:49;17.47;;;12.63;;
15246;SDS011;7726;48.820;9.248;2023-12-04T14:41:16;19.47;;;13.07;;
15246;SDS011;7726;48.820;9.248;2023-12-04T14:43:43;23.80;;;13.83;;
15246;SDS011;7726;48.820;9.248;2023-12-04T14:46:10;20.03;;;12.93;;